sensor_id;sensor_type;location;lat;lon;timestamp;P1;durP1;ratioP1;P2;durP2;ratioP2
11604;SDS011;5858;43.076;25.626;2022-07-29T00:00:57;8.48;;;7.47;;
11604;SDS011;5858;43.076;25.626;2022-07-29T00:03:54;8.85;;;7.95;;
11604;SDS011;5858;43.076;25.626;2022-07-29T00:06:26;7.90;;;7.20;;
11604;SDS011;5858;43.076;25.626;2022-07-29T00:09:10;9.25;;;8.50;;
11604;SDS011;5858;43.076;25.626;2022-07-29T00:11:53;9.30;;;7.38;;
11604;SDS011;5858;43.076;25.626;2022-07-29T00:14:23;8.60;;;7.75;;
11604;SDS011;5858;43.076;25.626;2022-07-29T00:16:55;9.88;;;7.50;;
11604;SDS011;5858;43.076;25.626;2022-07-29T00:19:29;8.73;;;7.68;;
11604;SDS011;5858;43.076;25.626;2022-07-29T00:22:11;7.03;;;6.32;;
11604;SDS011;5858;43.076;25.626;2022-07-29T00:24:57;6.90;;;6.20;;
11604;SDS011;5858;43.076;25.626;2022-07-29T00:27:30;6.88;;;6.28;;
11604;SDS011;5858;43.076;25.626;2022-07-29T00:29:57;7.57;;;6.88;;
11604;SDS011;5858;43.076;25.626;2022-07-29T00:32:43;7.32;;;6.63;;
11604;SDS011;5858;43.076;25.626;2022-07-29T00:35:31;8.90;;;8.00;;
11604;SDS011;5858;43.076;25.626;2022-07-29T00:41:23;8.68;;;7.78;;
11604;SDS011;5858;43.076;25.626;2022-07-29T00:44:08;8.82;;;7.35;;
11604;SDS011;5858;43.076;25.626;2022-07-29T00:46:41;8.32;;;7.53;;
11604;SDS011;5858;43.076;25.626;2022-07-29T00:49:20;10.18;;;7.78;;
11604;SDS011;5858;43.076;25.626;2022-07-29T00:52:14;8.25;;;6.80;;
11604;SDS011;5858;43.076;25.626;2022-07-29T00:55:09;8.20;;;7.43;;
11604;SDS011;5858;43.076;25.626;2022-07-29T00:57:51;8.55;;;7.80;;
11604;SDS011;5858;43.076;25.626;2022-07-29T01:00:46;9.07;;;7.95;;
11604;SDS011;5858;43.076;25.626;2022-07-29T01:03:19;8.93;;;7.88;;
11604;SDS011;5858;43.076;25.626;2022-07-29T01:05:46;9.07;;;8.13;;
11604;SDS011;5858;43.076;25.626;2022-07-29T01:08:14;9.35;;;8.32;;
11604;SDS011;5858;43.076;25.626;2022-07-29T01:10:43;9.50;;;8.60;;
11604;SDS011;5858;43.076;25.626;2022-07-29T01:13:12;9.32;;;8.43;;
11604;SDS011;5858;43.076;25.626;2022-07-29T01:15:43;8.82;;;8.02;;
11604;SDS011;5858;43.076;25.626;2022-07-29T01:18:15;10.20;;;9.20;;
11604;SDS011;5858;43.076;25.626;2022-07-29T01:20:50;9.55;;;8.65;;
11604;SDS011;5858;43.076;25.626;2022-07-29T01:23:50;10.07;;;8.32;;
11604;SDS011;5858;43.076;25.626;2022-07-29T01:26:44;10.52;;;9.52;;
11604;SDS011;5858;43.076;25.626;2022-07-29T01:29:20;9.43;;;7.80;;
11604;SDS011;5858;43.076;25.626;2022-07-29T01:31:54;9.05;;;8.23;;
11604;SDS011;5858;43.076;25.626;2022-07-29T01:34:29;8.73;;;7.82;;
11604;SDS011;5858;43.076;25.626;2022-07-29T01:37:22;8.23;;;7.35;;
11604;SDS011;5858;43.076;25.626;2022-07-29T01:41:49;6.95;;;6.25;;
11604;SDS011;5858;43.076;25.626;2022-07-29T01:44:22;7.55;;;6.60;;
11604;SDS011;5858;43.076;25.626;2022-07-29T01:47:26;7.57;;;6.88;;
11604;SDS011;5858;43.076;25.626;2022-07-29T01:50:11;7.28;;;6.68;;
11604;SDS011;5858;43.076;25.626;2022-07-29T01:52:58;6.68;;;6.18;;
11604;SDS011;5858;43.076;25.626;2022-07-29T01:55:44;9.05;;;6.53;;
11604;SDS011;5858;43.076;25.626;2022-07-29T01:58:46;7.13;;;6.43;;
11604;SDS011;5858;43.076;25.626;2022-07-29T02:01:30;8.25;;;7.20;;
11604;SDS011;5858;43.076;25.626;2022-07-29T02:04:13;8.93;;;7.50;;
11604;SDS011;5858;43.076;25.626;2022-07-29T02:06:45;8.63;;;7.82;;
11604;SDS011;5858;43.076;25.626;2022-07-29T02:09:21;8.38;;;7.18;;
11604;SDS011;5858;43.076;25.626;2022-07-29T02:12:06;7.68;;;6.97;;
11604;SDS011;5858;43.076;25.626;2022-07-29T02:14:43;8.63;;;7.82;;
11604;SDS011;5858;43.076;25.626;2022-07-29T02:17:13;10.27;;;8.10;;
11604;SDS011;5858;43.076;25.626;2022-07-29T02:19:49;11.68;;;9.75;;
11604;SDS011;5858;43.076;25.626;2022-07-29T02:22:18;12.38;;;11.10;;
11604;SDS011;5858;43.076;25.626;2022-07-29T02:24:50;12.15;;;10.73;;
11604;SDS011;5858;43.076;25.626;2022-07-29T02:27:31;10.55;;;9.05;;
11604;SDS011;5858;43.076;25.626;2022-07-29T02:30:10;8.23;;;7.32;;
11604;SDS011;5858;43.076;25.626;2022-07-29T02:33:03;8.32;;;7.10;;
11604;SDS011;5858;43.076;25.626;2022-07-29T02:35:39;7.60;;;6.90;;
11604;SDS011;5858;43.076;25.626;2022-07-29T02:38:24;8.10;;;7.03;;
11604;SDS011;5858;43.076;25.626;2022-07-29T02:41:28;6.95;;;6.00;;
11604;SDS011;5858;43.076;25.626;2022-07-29T02:44:33;7.07;;;6.40;;
11604;SDS011;5858;43.076;25.626;2022-07-29T02:47:27;7.35;;;6.75;;
11604;SDS011;5858;43.076;25.626;2022-07-29T02:50:08;9.73;;;6.78;;
11604;SDS011;5858;43.076;25.626;2022-07-29T02:53:02;12.50;;;7.13;;
11604;SDS011;5858;43.076;25.626;2022-07-29T02:55:51;6.60;;;5.97;;
11604;SDS011;5858;43.076;25.626;2022-07-29T02:58:45;8.95;;;6.30;;
11604;SDS011;5858;43.076;25.626;2022-07-29T03:01:34;6.13;;;5.53;;
11604;SDS011;5858;43.076;25.626;2022-07-29T03:04:14;6.25;;;4.93;;
11604;SDS011;5858;43.076;25.626;2022-07-29T03:06:43;5.63;;;5.10;;
11604;SDS011;5858;43.076;25.626;2022-07-29T03:12:13;5.35;;;4.93;;
11604;SDS011;5858;43.076;25.626;2022-07-29T03:14:48;5.35;;;4.82;;
11604;SDS011;5858;43.076;25.626;2022-07-29T03:17:15;5.95;;;5.35;;
11604;SDS011;5858;43.076;25.626;2022-07-29T03:19:42;5.57;;;5.18;;
11604;SDS011;5858;43.076;25.626;2022-07-29T03:22:10;6.80;;;6.20;;
11604;SDS011;5858;43.076;25.626;2022-07-29T03:24:44;7.35;;;6.07;;
11604;SDS011;5858;43.076;25.626;2022-07-29T03:27:20;7.53;;;6.00;;
11604;SDS011;5858;43.076;25.626;2022-07-29T03:29:47;6.10;;;5.50;;
11604;SDS011;5858;43.076;25.626;2022-07-29T03:32:14;6.13;;;5.55;;
11604;SDS011;5858;43.076;25.626;2022-07-29T03:34:42;8.90;;;6.18;;
11604;SDS011;5858;43.076;25.626;2022-07-29T03:37:09;6.28;;;5.35;;
11604;SDS011;5858;43.076;25.626;2022-07-29T03:39:38;6.88;;;5.55;;
11604;SDS011;5858;43.076;25.626;2022-07-29T03:42:12;6.38;;;5.70;;
11604;SDS011;5858;43.076;25.626;2022-07-29T03:44:52;7.20;;;5.47;;
11604;SDS011;5858;43.076;25.626;2022-07-29T03:47:22;7.57;;;6.88;;
11604;SDS011;5858;43.076;25.626;2022-07-29T03:49:52;7.78;;;7.00;;
11604;SDS011;5858;43.076;25.626;2022-07-29T03:52:36;11.15;;;8.82;;
11604;SDS011;5858;43.076;25.626;2022-07-29T03:55:36;9.13;;;8.30;;
11604;SDS011;5858;43.076;25.626;2022-07-29T03:58:26;15.32;;;9.05;;
11604;SDS011;5858;43.076;25.626;2022-07-29T04:01:25;7.90;;;6.53;;
11604;SDS011;5858;43.076;25.626;2022-07-29T04:04:34;10.63;;;8.30;;
11604;SDS011;5858;43.076;25.626;2022-07-29T04:07:46;8.15;;;6.80;;
11604;SDS011;5858;43.076;25.626;2022-07-29T04:10:43;9.85;;;7.03;;
11604;SDS011;5858;43.076;25.626;2022-07-29T04:13:20;9.10;;;6.10;;
11604;SDS011;5858;43.076;25.626;2022-07-29T04:15:54;12.70;;;7.22;;
11604;SDS011;5858;43.076;25.626;2022-07-29T04:18:21;12.35;;;8.07;;
11604;SDS011;5858;43.076;25.626;2022-07-29T04:20:56;11.27;;;7.35;;
11604;SDS011;5858;43.076;25.626;2022-07-29T04:23:25;12.38;;;7.28;;
11604;SDS011;5858;43.076;25.626;2022-07-29T04:25:52;10.23;;;7.38;;
11604;SDS011;5858;43.076;25.626;2022-07-29T04:28:19;12.98;;;8.18;;
11604;SDS011;5858;43.076;25.626;2022-07-29T04:30:47;10.02;;;7.72;;
11604;SDS011;5858;43.076;25.626;2022-07-29T04:33:14;13.25;;;8.05;;
11604;SDS011;5858;43.076;25.626;2022-07-29T04:35:42;9.68;;;7.60;;
11604;SDS011;5858;43.076;25.626;2022-07-29T04:38:09;9.13;;;8.05;;
11604;SDS011;5858;43.076;25.626;2022-07-29T04:40:36;17.30;;;11.60;;
11604;SDS011;5858;43.076;25.626;2022-07-29T04:43:03;18.08;;;14.55;;
11604;SDS011;5858;43.076;25.626;2022-07-29T04:45:30;19.67;;;16.30;;
11604;SDS011;5858;43.076;25.626;2022-07-29T04:47:58;18.92;;;17.00;;
11604;SDS011;5858;43.076;25.626;2022-07-29T04:50:25;20.65;;;18.63;;
11604;SDS011;5858;43.076;25.626;2022-07-29T04:53:02;23.45;;;20.98;;
11604;SDS011;5858;43.076;25.626;2022-07-29T04:55:31;34.88;;;24.85;;
11604;SDS011;5858;43.076;25.626;2022-07-29T04:58:15;29.90;;;26.50;;
11604;SDS011;5858;43.076;25.626;2022-07-29T05:00:58;39.47;;;33.10;;
11604;SDS011;5858;43.076;25.626;2022-07-29T05:03:26;38.20;;;29.65;;
11604;SDS011;5858;43.076;25.626;2022-07-29T05:06:00;34.72;;;30.92;;
11604;SDS011;5858;43.076;25.626;2022-07-29T05:08:28;28.65;;;23.83;;
11604;SDS011;5858;43.076;25.626;2022-07-29T05:11:26;23.98;;;20.38;;
11604;SDS011;5858;43.076;25.626;2022-07-29T05:13:44;20.90;;;17.38;;
11604;SDS011;5858;43.076;25.626;2022-07-29T05:16:20;19.50;;;15.07;;
11604;SDS011;5858;43.076;25.626;2022-07-29T05:25:43;8.40;;;6.90;;
11604;SDS011;5858;43.076;25.626;2022-07-29T05:28:13;15.98;;;9.80;;
11604;SDS011;5858;43.076;25.626;2022-07-29T05:30:42;11.00;;;9.23;;
11604;SDS011;5858;43.076;25.626;2022-07-29T05:36:17;11.50;;;10.40;;
11604;SDS011;5858;43.076;25.626;2022-07-29T05:38:44;13.82;;;10.98;;
11604;SDS011;5858;43.076;25.626;2022-07-29T05:41:12;15.75;;;14.15;;
11604;SDS011;5858;43.076;25.626;2022-07-29T05:43:43;14.35;;;12.80;;
11604;SDS011;5858;43.076;25.626;2022-07-29T05:46:10;14.60;;;12.75;;
11604;SDS011;5858;43.076;25.626;2022-07-29T05:48:41;11.18;;;9.30;;
11604;SDS011;5858;43.076;25.626;2022-07-29T05:51:11;8.25;;;7.22;;
11604;SDS011;5858;43.076;25.626;2022-07-29T05:53:38;8.82;;;6.93;;
11604;SDS011;5858;43.076;25.626;2022-07-29T05:56:10;7.70;;;7.00;;
11604;SDS011;5858;43.076;25.626;2022-07-29T05:58:38;8.07;;;6.32;;
11604;SDS011;5858;43.076;25.626;2022-07-29T06:01:05;8.07;;;5.95;;
11604;SDS011;5858;43.076;25.626;2022-07-29T06:03:33;6.93;;;5.22;;
11604;SDS011;5858;43.076;25.626;2022-07-29T06:06:02;6.15;;;5.10;;
11604;SDS011;5858;43.076;25.626;2022-07-29T06:08:31;7.05;;;5.13;;
11604;SDS011;5858;43.076;25.626;2022-07-29T06:10:58;4.97;;;4.53;;
11604;SDS011;5858;43.076;25.626;2022-07-29T06:13:25;7.18;;;4.45;;
11604;SDS011;5858;43.076;25.626;2022-07-29T06:15:54;7.63;;;4.18;;
11604;SDS011;5858;43.076;25.626;2022-07-29T06:18:21;5.35;;;4.63;;
11604;SDS011;5858;43.076;25.626;2022-07-29T06:20:58;4.80;;;4.30;;
11604;SDS011;5858;43.076;25.626;2022-07-29T06:23:27;5.07;;;3.97;;
11604;SDS011;5858;43.076;25.626;2022-07-29T06:26:00;5.88;;;3.70;;
11604;SDS011;5858;43.076;25.626;2022-07-29T06:28:27;4.55;;;4.00;;
11604;SDS011;5858;43.076;25.626;2022-07-29T06:30:55;6.28;;;4.25;;
11604;SDS011;5858;43.076;25.626;2022-07-29T06:33:22;6.32;;;3.38;;
11604;SDS011;5858;43.076;25.626;2022-07-29T06:35:50;4.18;;;3.05;;
11604;SDS011;5858;43.076;25.626;2022-07-29T06:38:17;4.78;;;2.95;;
11604;SDS011;5858;43.076;25.626;2022-07-29T06:40:44;4.72;;;3.42;;
11604;SDS011;5858;43.076;25.626;2022-07-29T06:43:28;6.38;;;4.30;;
11604;SDS011;5858;43.076;25.626;2022-07-29T06:46:03;5.18;;;3.85;;
11604;SDS011;5858;43.076;25.626;2022-07-29T06:48:40;4.28;;;3.88;;
11604;SDS011;5858;43.076;25.626;2022-07-29T06:51:23;6.47;;;3.88;;
11604;SDS011;5858;43.076;25.626;2022-07-29T06:53:52;8.52;;;3.95;;
11604;SDS011;5858;43.076;25.626;2022-07-29T06:56:19;5.43;;;3.60;;
11604;SDS011;5858;43.076;25.626;2022-07-29T06:58:46;4.38;;;3.60;;
11604;SDS011;5858;43.076;25.626;2022-07-29T07:01:19;7.15;;;3.88;;
11604;SDS011;5858;43.076;25.626;2022-07-29T07:03:46;6.22;;;4.20;;
11604;SDS011;5858;43.076;25.626;2022-07-29T07:06:14;6.57;;;3.90;;
11604;SDS011;5858;43.076;25.626;2022-07-29T07:08:41;6.53;;;3.67;;
11604;SDS011;5858;43.076;25.626;2022-07-29T07:11:08;5.22;;;3.70;;
11604;SDS011;5858;43.076;25.626;2022-07-29T07:13:35;5.10;;;3.47;;
11604;SDS011;5858;43.076;25.626;2022-07-29T07:16:03;5.18;;;3.30;;
11604;SDS011;5858;43.076;25.626;2022-07-29T07:18:32;3.47;;;3.20;;
11604;SDS011;5858;43.076;25.626;2022-07-29T07:20:59;3.90;;;3.03;;
11604;SDS011;5858;43.076;25.626;2022-07-29T07:23:26;4.68;;;3.40;;
11604;SDS011;5858;43.076;25.626;2022-07-29T07:25:53;3.45;;;2.97;;
11604;SDS011;5858;43.076;25.626;2022-07-29T07:28:20;4.38;;;3.20;;
11604;SDS011;5858;43.076;25.626;2022-07-29T07:30:47;4.15;;;2.85;;
11604;SDS011;5858;43.076;25.626;2022-07-29T07:33:15;3.67;;;3.28;;
11604;SDS011;5858;43.076;25.626;2022-07-29T07:35:44;4.25;;;3.00;;
11604;SDS011;5858;43.076;25.626;2022-07-29T07:38:11;5.38;;;3.30;;
11604;SDS011;5858;43.076;25.626;2022-07-29T07:40:38;2.92;;;2.72;;
11604;SDS011;5858;43.076;25.626;2022-07-29T07:43:05;4.80;;;2.92;;
11604;SDS011;5858;43.076;25.626;2022-07-29T07:45:32;3.88;;;2.70;;
11604;SDS011;5858;43.076;25.626;2022-07-29T07:47:59;2.90;;;2.67;;
11604;SDS011;5858;43.076;25.626;2022-07-29T07:50:26;3.17;;;2.50;;
11604;SDS011;5858;43.076;25.626;2022-07-29T07:52:55;5.00;;;2.70;;
11604;SDS011;5858;43.076;25.626;2022-07-29T07:55:23;5.85;;;3.17;;
11604;SDS011;5858;43.076;25.626;2022-07-29T07:57:50;2.90;;;2.70;;
11604;SDS011;5858;43.076;25.626;2022-07-29T08:00:17;2.90;;;2.60;;
11604;SDS011;5858;43.076;25.626;2022-07-29T08:02:47;3.28;;;2.90;;
11604;SDS011;5858;43.076;25.626;2022-07-29T08:05:15;3.78;;;3.15;;
11604;SDS011;5858;43.076;25.626;2022-07-29T08:07:43;2.88;;;2.67;;
11604;SDS011;5858;43.076;25.626;2022-07-29T08:10:16;4.90;;;2.60;;
11604;SDS011;5858;43.076;25.626;2022-07-29T08:13:04;4.53;;;2.88;;
11604;SDS011;5858;43.076;25.626;2022-07-29T08:15:34;5.60;;;2.83;;
11604;SDS011;5858;43.076;25.626;2022-07-29T08:18:02;3.13;;;2.67;;
11604;SDS011;5858;43.076;25.626;2022-07-29T08:20:29;2.95;;;2.65;;
11604;SDS011;5858;43.076;25.626;2022-07-29T08:22:58;3.10;;;2.90;;
11604;SDS011;5858;43.076;25.626;2022-07-29T08:25:26;5.75;;;2.65;;
11604;SDS011;5858;43.076;25.626;2022-07-29T08:27:57;8.63;;;3.10;;
11604;SDS011;5858;43.076;25.626;2022-07-29T08:30:24;6.43;;;3.40;;
11604;SDS011;5858;43.076;25.626;2022-07-29T08:32:51;4.00;;;3.47;;
11604;SDS011;5858;43.076;25.626;2022-07-29T08:35:18;3.70;;;3.40;;
11604;SDS011;5858;43.076;25.626;2022-07-29T08:37:45;7.03;;;4.10;;
11604;SDS011;5858;43.076;25.626;2022-07-29T08:40:12;4.30;;;3.20;;
11604;SDS011;5858;43.076;25.626;2022-07-29T08:42:41;6.35;;;4.78;;
11604;SDS011;5858;43.076;25.626;2022-07-29T08:45:09;4.70;;;3.92;;
11604;SDS011;5858;43.076;25.626;2022-07-29T08:47:37;10.25;;;6.93;;
11604;SDS011;5858;43.076;25.626;2022-07-29T08:50:06;4.22;;;3.75;;
11604;SDS011;5858;43.076;25.626;2022-07-29T08:52:35;10.65;;;7.10;;
11604;SDS011;5858;43.076;25.626;2022-07-29T08:55:04;6.72;;;6.13;;
11604;SDS011;5858;43.076;25.626;2022-07-29T08:57:33;6.85;;;6.05;;
11604;SDS011;5858;43.076;25.626;2022-07-29T09:00:02;3.58;;;3.28;;
11604;SDS011;5858;43.076;25.626;2022-07-29T09:02:35;8.82;;;3.70;;
11604;SDS011;5858;43.076;25.626;2022-07-29T09:05:08;4.03;;;3.63;;
11604;SDS011;5858;43.076;25.626;2022-07-29T09:07:35;3.83;;;3.25;;
11604;SDS011;5858;43.076;25.626;2022-07-29T09:13:10;3.53;;;2.35;;
11604;SDS011;5858;43.076;25.626;2022-07-29T09:15:39;5.30;;;3.70;;
11604;SDS011;5858;43.076;25.626;2022-07-29T09:18:08;2.72;;;2.53;;
11604;SDS011;5858;43.076;25.626;2022-07-29T09:20:35;3.58;;;2.55;;
11604;SDS011;5858;43.076;25.626;2022-07-29T09:23:19;5.72;;;2.40;;
11604;SDS011;5858;43.076;25.626;2022-07-29T09:25:47;4.00;;;2.38;;
11604;SDS011;5858;43.076;25.626;2022-07-29T09:28:16;2.50;;;2.17;;
11604;SDS011;5858;43.076;25.626;2022-07-29T09:30:53;2.80;;;2.35;;
11604;SDS011;5858;43.076;25.626;2022-07-29T09:33:22;5.63;;;2.70;;
11604;SDS011;5858;43.076;25.626;2022-07-29T09:35:58;4.13;;;2.67;;
11604;SDS011;5858;43.076;25.626;2022-07-29T09:38:26;4.72;;;2.85;;
11604;SDS011;5858;43.076;25.626;2022-07-29T09:40:55;3.05;;;2.47;;
11604;SDS011;5858;43.076;25.626;2022-07-29T09:43:23;2.50;;;2.30;;
11604;SDS011;5858;43.076;25.626;2022-07-29T09:45:52;2.50;;;2.30;;
11604;SDS011;5858;43.076;25.626;2022-07-29T09:48:20;2.92;;;2.33;;
11604;SDS011;5858;43.076;25.626;2022-07-29T09:51:42;2.42;;;2.10;;
11604;SDS011;5858;43.076;25.626;2022-07-29T09:53:56;2.55;;;2.20;;
11604;SDS011;5858;43.076;25.626;2022-07-29T09:56:37;4.35;;;2.28;;
11604;SDS011;5858;43.076;25.626;2022-07-29T09:59:08;2.45;;;2.25;;
11604;SDS011;5858;43.076;25.626;2022-07-29T10:04:49;3.53;;;2.58;;
11604;SDS011;5858;43.076;25.626;2022-07-29T10:07:26;4.57;;;2.83;;
11604;SDS011;5858;43.076;25.626;2022-07-29T10:10:17;2.90;;;2.58;;
11604;SDS011;5858;43.076;25.626;2022-07-29T10:12:52;4.50;;;2.40;;
11604;SDS011;5858;43.076;25.626;2022-07-29T10:15:23;3.05;;;2.58;;
11604;SDS011;5858;43.076;25.626;2022-07-29T10:17:51;3.30;;;2.38;;
11604;SDS011;5858;43.076;25.626;2022-07-29T10:23:36;2.65;;;2.40;;
11604;SDS011;5858;43.076;25.626;2022-07-29T10:26:30;2.80;;;2.60;;
11604;SDS011;5858;43.076;25.626;2022-07-29T10:29:06;2.75;;;2.50;;
11604;SDS011;5858;43.076;25.626;2022-07-29T10:31:48;5.93;;;2.72;;
11604;SDS011;5858;43.076;25.626;2022-07-29T11:11:34;2.65;;;2.45;;
11604;SDS011;5858;43.076;25.626;2022-07-29T11:25:28;3.72;;;2.40;;
11604;SDS011;5858;43.076;25.626;2022-07-29T11:28:07;2.60;;;2.40;;
11604;SDS011;5858;43.076;25.626;2022-07-29T11:30:51;2.92;;;2.70;;
11604;SDS011;5858;43.076;25.626;2022-07-29T11:33:39;3.63;;;2.60;;
11604;SDS011;5858;43.076;25.626;2022-07-29T11:36:22;4.68;;;2.55;;
11604;SDS011;5858;43.076;25.626;2022-07-29T11:39:27;3.92;;;2.88;;
11604;SDS011;5858;43.076;25.626;2022-07-29T11:45:44;4.93;;;2.75;;
11604;SDS011;5858;43.076;25.626;2022-07-29T11:52:23;4.10;;;3.17;;
11604;SDS011;5858;43.076;25.626;2022-07-29T11:58:30;2.67;;;2.47;;
11604;SDS011;5858;43.076;25.626;2022-07-29T12:01:00;3.63;;;3.28;;
11604;SDS011;5858;43.076;25.626;2022-07-29T12:04:00;4.93;;;2.88;;
11604;SDS011;5858;43.076;25.626;2022-07-29T12:06:34;3.00;;;2.80;;
11604;SDS011;5858;43.076;25.626;2022-07-29T12:09:06;2.92;;;2.72;;
11604;SDS011;5858;43.076;25.626;2022-07-29T12:11:44;4.03;;;2.75;;
11604;SDS011;5858;43.076;25.626;2022-07-29T12:14:45;2.80;;;2.60;;
11604;SDS011;5858;43.076;25.626;2022-07-29T12:20:47;3.78;;;2.72;;
11604;SDS011;5858;43.076;25.626;2022-07-29T12:23:14;2.83;;;2.63;;
11604;SDS011;5858;43.076;25.626;2022-07-29T12:25:43;3.97;;;2.75;;
11604;SDS011;5858;43.076;25.626;2022-07-29T12:28:13;7.47;;;3.25;;
11604;SDS011;5858;43.076;25.626;2022-07-29T12:30:44;5.00;;;3.08;;
11604;SDS011;5858;43.076;25.626;2022-07-29T12:33:18;3.80;;;2.72;;
11604;SDS011;5858;43.076;25.626;2022-07-29T12:35:54;3.38;;;3.08;;
11604;SDS011;5858;43.076;25.626;2022-07-29T12:38:24;4.75;;;3.20;;
11604;SDS011;5858;43.076;25.626;2022-07-29T12:41:25;3.58;;;2.65;;
11604;SDS011;5858;43.076;25.626;2022-07-29T12:43:55;3.50;;;3.20;;
11604;SDS011;5858;43.076;25.626;2022-07-29T12:46:23;3.38;;;3.08;;
11604;SDS011;5858;43.076;25.626;2022-07-29T12:48:51;5.28;;;2.90;;
11604;SDS011;5858;43.076;25.626;2022-07-29T12:51:29;3.72;;;2.88;;
11604;SDS011;5858;43.076;25.626;2022-07-29T12:54:02;3.35;;;3.08;;
11604;SDS011;5858;43.076;25.626;2022-07-29T12:56:30;4.53;;;3.03;;
11604;SDS011;5858;43.076;25.626;2022-07-29T12:58:57;5.65;;;3.22;;
11604;SDS011;5858;43.076;25.626;2022-07-29T13:01:25;2.97;;;2.60;;
11604;SDS011;5858;43.076;25.626;2022-07-29T13:03:53;2.63;;;2.42;;
11604;SDS011;5858;43.076;25.626;2022-07-29T13:06:34;2.90;;;2.70;;
11604;SDS011;5858;43.076;25.626;2022-07-29T13:09:08;5.68;;;3.00;;
11604;SDS011;5858;43.076;25.626;2022-07-29T13:11:37;6.18;;;2.83;;
11604;SDS011;5858;43.076;25.626;2022-07-29T13:14:06;3.50;;;2.78;;
11604;SDS011;5858;43.076;25.626;2022-07-29T13:16:35;2.83;;;2.63;;
11604;SDS011;5858;43.076;25.626;2022-07-29T13:22:03;3.20;;;2.90;;
11604;SDS011;5858;43.076;25.626;2022-07-29T13:24:31;5.82;;;2.92;;
11604;SDS011;5858;43.076;25.626;2022-07-29T13:26:58;4.45;;;2.75;;
11604;SDS011;5858;43.076;25.626;2022-07-29T13:29:25;2.97;;;2.78;;
11604;SDS011;5858;43.076;25.626;2022-07-29T13:31:52;5.05;;;3.00;;
11604;SDS011;5858;43.076;25.626;2022-07-29T13:34:20;4.30;;;3.15;;
11604;SDS011;5858;43.076;25.626;2022-07-29T13:36:49;3.05;;;2.75;;
11604;SDS011;5858;43.076;25.626;2022-07-29T13:39:17;3.72;;;3.10;;
11604;SDS011;5858;43.076;25.626;2022-07-29T13:41:44;4.30;;;3.15;;
11604;SDS011;5858;43.076;25.626;2022-07-29T13:44:13;3.20;;;2.85;;
11604;SDS011;5858;43.076;25.626;2022-07-29T13:46:42;2.90;;;2.63;;
11604;SDS011;5858;43.076;25.626;2022-07-29T13:49:09;4.85;;;2.90;;
11604;SDS011;5858;43.076;25.626;2022-07-29T13:51:37;2.60;;;2.47;;
11604;SDS011;5858;43.076;25.626;2022-07-29T13:54:04;3.47;;;2.95;;
11604;SDS011;5858;43.076;25.626;2022-07-29T13:56:35;3.30;;;3.00;;
11604;SDS011;5858;43.076;25.626;2022-07-29T13:59:06;4.07;;;3.35;;
11604;SDS011;5858;43.076;25.626;2022-07-29T14:01:34;3.30;;;2.67;;
11604;SDS011;5858;43.076;25.626;2022-07-29T14:04:11;2.78;;;2.58;;
11604;SDS011;5858;43.076;25.626;2022-07-29T14:06:38;4.13;;;3.08;;
11604;SDS011;5858;43.076;25.626;2022-07-29T14:09:08;2.97;;;2.78;;
11604;SDS011;5858;43.076;25.626;2022-07-29T14:11:37;4.63;;;2.95;;
11604;SDS011;5858;43.076;25.626;2022-07-29T14:14:04;3.65;;;2.80;;
11604;SDS011;5858;43.076;25.626;2022-07-29T14:16:31;4.07;;;3.10;;
11604;SDS011;5858;43.076;25.626;2022-07-29T14:18:59;4.32;;;2.90;;
11604;SDS011;5858;43.076;25.626;2022-07-29T14:21:26;3.55;;;2.70;;
11604;SDS011;5858;43.076;25.626;2022-07-29T14:23:52;3.20;;;2.90;;
11604;SDS011;5858;43.076;25.626;2022-07-29T14:26:19;3.47;;;3.20;;
11604;SDS011;5858;43.076;25.626;2022-07-29T14:28:49;3.53;;;2.88;;
11604;SDS011;5858;43.076;25.626;2022-07-29T14:31:16;3.75;;;3.35;;
11604;SDS011;5858;43.076;25.626;2022-07-29T14:33:43;5.00;;;3.05;;
11604;SDS011;5858;43.076;25.626;2022-07-29T14:36:10;3.90;;;3.15;;
11604;SDS011;5858;43.076;25.626;2022-07-29T14:38:37;4.00;;;3.05;;
11604;SDS011;5858;43.076;25.626;2022-07-29T14:41:05;4.57;;;2.97;;
11604;SDS011;5858;43.076;25.626;2022-07-29T14:43:33;4.82;;;3.67;;
11604;SDS011;5858;43.076;25.626;2022-07-29T14:46:01;3.97;;;2.88;;
11604;SDS011;5858;43.076;25.626;2022-07-29T14:48:28;3.28;;;2.97;;
11604;SDS011;5858;43.076;25.626;2022-07-29T14:50:55;4.93;;;3.35;;
11604;SDS011;5858;43.076;25.626;2022-07-29T14:53:28;3.33;;;3.00;;
11604;SDS011;5858;43.076;25.626;2022-07-29T14:55:55;5.07;;;3.35;;
11604;SDS011;5858;43.076;25.626;2022-07-29T14:58:22;3.83;;;2.85;;
11604;SDS011;5858;43.076;25.626;2022-07-29T15:00:49;3.10;;;2.80;;
11604;SDS011;5858;43.076;25.626;2022-07-29T15:03:39;4.78;;;3.30;;
11604;SDS011;5858;43.076;25.626;2022-07-29T15:06:07;6.28;;;3.80;;
11604;SDS011;5858;43.076;25.626;2022-07-29T15:08:39;3.67;;;2.60;;
11604;SDS011;5858;43.076;25.626;2022-07-29T15:11:45;3.10;;;2.90;;
11604;SDS011;5858;43.076;25.626;2022-07-29T15:18:03;3.15;;;2.95;;
11604;SDS011;5858;43.076;25.626;2022-07-29T15:21:15;3.75;;;2.92;;
11604;SDS011;5858;43.076;25.626;2022-07-29T15:27:16;4.75;;;3.15;;
11604;SDS011;5858;43.076;25.626;2022-07-29T15:30:24;3.50;;;3.20;;
11604;SDS011;5858;43.076;25.626;2022-07-29T15:33:08;3.88;;;2.85;;
11604;SDS011;5858;43.076;25.626;2022-07-29T15:46:29;3.33;;;3.03;;
11604;SDS011;5858;43.076;25.626;2022-07-29T15:49:22;3.97;;;3.45;;
11604;SDS011;5858;43.076;25.626;2022-07-29T15:52:06;4.30;;;3.78;;
11604;SDS011;5858;43.076;25.626;2022-07-29T15:58:42;3.55;;;3.25;;
11604;SDS011;5858;43.076;25.626;2022-07-29T16:01:39;3.60;;;3.30;;
11604;SDS011;5858;43.076;25.626;2022-07-29T16:04:20;5.22;;;3.08;;
11604;SDS011;5858;43.076;25.626;2022-07-29T16:07:06;3.63;;;3.33;;
11604;SDS011;5858;43.076;25.626;2022-07-29T16:09:35;9.02;;;6.63;;
11604;SDS011;5858;43.076;25.626;2022-07-29T16:12:23;3.33;;;3.13;;
11604;SDS011;5858;43.076;25.626;2022-07-29T16:15:20;3.22;;;2.90;;
11604;SDS011;5858;43.076;25.626;2022-07-29T16:17:58;6.40;;;3.28;;
11604;SDS011;5858;43.076;25.626;2022-07-29T16:24:06;3.10;;;2.80;;
11604;SDS011;5858;43.076;25.626;2022-07-29T16:26:57;4.45;;;3.13;;
11604;SDS011;5858;43.076;25.626;2022-07-29T16:30:02;3.97;;;3.30;;
11604;SDS011;5858;43.076;25.626;2022-07-29T16:36:57;3.47;;;3.25;;
11604;SDS011;5858;43.076;25.626;2022-07-29T16:39:28;4.80;;;3.00;;
11604;SDS011;5858;43.076;25.626;2022-07-29T16:41:55;4.35;;;3.25;;
11604;SDS011;5858;43.076;25.626;2022-07-29T16:44:22;3.78;;;3.17;;
11604;SDS011;5858;43.076;25.626;2022-07-29T16:47:09;3.22;;;2.92;;
11604;SDS011;5858;43.076;25.626;2022-07-29T16:49:43;3.67;;;3.38;;
11604;SDS011;5858;43.076;25.626;2022-07-29T16:52:19;4.35;;;3.35;;
11604;SDS011;5858;43.076;25.626;2022-07-29T16:55:04;3.72;;;3.42;;
11604;SDS011;5858;43.076;25.626;2022-07-29T16:57:44;4.55;;;3.40;;
11604;SDS011;5858;43.076;25.626;2022-07-29T17:00:15;5.60;;;3.33;;
11604;SDS011;5858;43.076;25.626;2022-07-29T17:02:46;3.17;;;2.90;;
11604;SDS011;5858;43.076;25.626;2022-07-29T17:05:22;3.95;;;3.28;;
11604;SDS011;5858;43.076;25.626;2022-07-29T17:07:54;3.65;;;3.35;;
11604;SDS011;5858;43.076;25.626;2022-07-29T17:10:22;3.53;;;3.22;;
11604;SDS011;5858;43.076;25.626;2022-07-29T17:12:54;3.65;;;3.28;;
11604;SDS011;5858;43.076;25.626;2022-07-29T17:15:30;3.28;;;3.03;;
11604;SDS011;5858;43.076;25.626;2022-07-29T17:18:00;3.78;;;3.38;;
11604;SDS011;5858;43.076;25.626;2022-07-29T17:20:31;3.33;;;3.13;;
11604;SDS011;5858;43.076;25.626;2022-07-29T17:23:00;4.28;;;3.20;;
11604;SDS011;5858;43.076;25.626;2022-07-29T17:25:30;4.75;;;3.78;;
11604;SDS011;5858;43.076;25.626;2022-07-29T17:27:58;3.67;;;3.25;;
11604;SDS011;5858;43.076;25.626;2022-07-29T17:30:29;6.32;;;3.20;;
11604;SDS011;5858;43.076;25.626;2022-07-29T17:33:05;4.97;;;3.40;;